地図

経路データ

SID SEASON NUMBER BASIN SUBBASIN NAME ISO_TIME NATURE LAT LON WMO_WIND WMO_PRES WMO_AGENCY TRACK_TYPE DIST2LAND LANDFALL IFLAG USA_AGENCY USA_ATCF_ID USA_LAT USA_LON USA_RECORD USA_STATUS USA_WIND USA_PRES USA_SSHS USA_R34_NE USA_R34_SE USA_R34_SW USA_R34_NW USA_R50_NE USA_R50_SE USA_R50_SW USA_R50_NW USA_R64_NE USA_R64_SE USA_R64_SW USA_R64_NW USA_POCI USA_ROCI USA_RMW USA_EYE TOKYO_LAT TOKYO_LON TOKYO_GRADE TOKYO_WIND TOKYO_PRES TOKYO_R50_DIR TOKYO_R50_LONG TOKYO_R50_SHORT TOKYO_R30_DIR TOKYO_R30_LONG TOKYO_R30_SHORT TOKYO_LAND CMA_LAT CMA_LON CMA_CAT CMA_WIND CMA_PRES HKO_LAT HKO_LON HKO_CAT HKO_WIND HKO_PRES NEWDELHI_LAT NEWDELHI_LON NEWDELHI_GRADE NEWDELHI_WIND NEWDELHI_PRES NEWDELHI_CI NEWDELHI_DP NEWDELHI_POCI REUNION_LAT REUNION_LON REUNION_TYPE REUNION_WIND REUNION_PRES REUNION_TNUM REUNION_CI REUNION_RMW REUNION_R34_NE REUNION_R34_SE REUNION_R34_SW REUNION_R34_NW REUNION_R50_NE REUNION_R50_SE REUNION_R50_SW REUNION_R50_NW REUNION_R64_NE REUNION_R64_SE REUNION_R64_SW REUNION_R64_NW BOM_LAT BOM_LON BOM_TYPE BOM_WIND BOM_PRES BOM_TNUM BOM_CI BOM_RMW BOM_R34_NE BOM_R34_SE BOM_R34_SW BOM_R34_NW BOM_R50_NE BOM_R50_SE BOM_R50_SW BOM_R50_NW BOM_R64_NE BOM_R64_SE BOM_R64_SW BOM_R64_NW BOM_ROCI BOM_POCI BOM_EYE BOM_POS_METHOD BOM_PRES_METHOD NADI_LAT NADI_LON NADI_CAT NADI_WIND NADI_PRES WELLINGTON_LAT WELLINGTON_LON WELLINGTON_WIND WELLINGTON_PRES DS824_LAT DS824_LON DS824_STAGE DS824_WIND DS824_PRES TD9636_LAT TD9636_LON TD9636_STAGE TD9636_WIND TD9636_PRES TD9635_LAT TD9635_LON TD9635_WIND TD9635_PRES TD9635_ROCI NEUMANN_LAT NEUMANN_LON NEUMANN_CLASS NEUMANN_WIND NEUMANN_PRES MLC_LAT MLC_LON MLC_CLASS MLC_WIND MLC_PRES USA_GUST BOM_GUST BOM_GUST_PER REUNION_GUST REUNION_GUST_PER USA_SEAHGT USA_SEARAD_NE USA_SEARAD_SE USA_SEARAD_SW USA_SEARAD_NW STORM_SPEED STORM_DIR
1997167N06162 1997 41 WP MM PETER 1997-06-15 12:00:00 NR 5.50000 162.400 main 1485 1465 O_____________ jtwc_wp WP091997 5.50000 162.400 15 -1 10 281
1997167N06162 1997 41 WP MM PETER 1997-06-15 15:00:00 NR 5.60009 161.900 main 1465 1439 P_____________ WP091997 5.60009 161.900 15 -1 10 281
1997167N06162 1997 41 WP MM PETER 1997-06-15 18:00:00 NR 5.70000 161.400 main 1439 1411 O_____________ jtwc_wp WP091997 5.70000 161.400 15 -1 10 281
1997167N06162 1997 41 WP MM PETER 1997-06-15 21:00:00 NR 5.79996 160.900 main 1411 1385 P_____________ WP091997 5.79996 160.900 15 -1 10 281
1997167N06162 1997 41 WP MM PETER 1997-06-16 00:00:00 NR 5.90000 160.400 main 1385 1361 O_____________ jtwc_wp WP091997 5.90000 160.400 15 -1 10 281
1997167N06162 1997 41 WP MM PETER 1997-06-16 03:00:00 NR 5.99246 159.900 main 1361 1336 P_____________ WP091997 5.99246 159.900 15 -1 10 281
1997167N06162 1997 41 WP MM PETER 1997-06-16 06:00:00 NR 6.10000 159.400 main 1336 1312 O_____________ jtwc_wp WP091997 6.10000 159.400 15 -1 10 284
1997167N06162 1997 41 WP MM PETER 1997-06-16 09:00:00 NR 6.24245 158.900 main 1312 1299 P_____________ WP091997 6.24245 158.900 15 -1 10 287
1997167N06162 1997 41 WP MM PETER 1997-06-16 12:00:00 NR 6.40000 158.400 main 1299 1279 O_____________ jtwc_wp WP091997 6.40000 158.400 15 -1 10 287
1997167N06162 1997 41 WP MM PETER 1997-06-16 15:00:00 NR 6.54995 157.900 main 1279 1269 P_____________ WP091997 6.54995 157.900 15 -1 10 287
1997167N06162 1997 41 WP MM PETER 1997-06-16 18:00:00 NR 6.70000 157.400 main 1269 1251 O_____________ jtwc_wp WP091997 6.70000 157.400 15 -1 10 286
1997167N06162 1997 41 WP MM PETER 1997-06-16 21:00:00 NR 6.84247 156.892 main 1251 1245 P_____________ WP091997 6.84247 156.892 15 -1 10 287
1997167N06162 1997 41 WP MM PETER 1997-06-17 00:00:00 NR 7.00000 156.400 main 1245 1235 O_____________ jtwc_wp WP091997 7.00000 156.400 15 -1 10 290
1997167N06162 1997 41 WP MM PETER 1997-06-17 03:00:00 NR 7.19243 155.942 main 1240 1235 P_____________ WP091997 7.19243 155.942 15 -1 10 294
1997167N06162 1997 41 WP MM PETER 1997-06-17 06:00:00 NR 7.40000 155.500 main 1241 1237 O_____________ jtwc_wp WP091997 7.40000 155.500 15 -1 10 295
1997167N06162 1997 41 WP MM PETER 1997-06-17 09:00:00 NR 7.60743 155.057 main 1244 1240 P_____________ WP091997 7.60743 155.057 15 -1 10 294
1997167N06162 1997 41 WP MM PETER 1997-06-17 12:00:00 NR 7.80000 154.600 main 1246 1239 O_____________ jtwc_wp WP091997 7.80000 154.600 15 -1 10 290
1997167N06162 1997 41 WP MM PETER 1997-06-17 15:00:00 NR 7.94999 154.100 main 1239 1239 P_____________ WP091997 7.94999 154.100 15 -1 10 287
1997167N06162 1997 41 WP MM PETER 1997-06-17 18:00:00 NR 8.10000 153.600 main 1246 1244 O_____________ jtwc_wp WP091997 8.10000 153.600 15 -1 10 290
1997167N06162 1997 41 WP MM PETER 1997-06-17 21:00:00 NR 8.29237 153.157 main 1258 1254 P_____________ WP091997 8.29237 153.157 15 -1 10 294
1997167N06162 1997 41 WP MM PETER 1997-06-18 00:00:00 NR 8.50000 152.700 main 1270 1269 O_____________ jtwc_wp WP091997 8.50000 152.700 15 -1 10 293
1997167N06162 1997 41 WP MM PETER 1997-06-18 03:00:00 NR 8.69987 152.187 main 1285 1284 P_____________ WP091997 8.69987 152.187 15 -1 12 290
1997167N06162 1997 41 WP MM PETER 1997-06-18 06:00:00 NR 8.90000 151.600 main 1302 1301 O_____________ jtwc_wp WP091997 8.90000 151.600 15 -1 13 288
1997167N06162 1997 41 WP MM PETER 1997-06-18 09:00:00 NR 9.09990 150.937 main 1313 1309 P_____________ WP091997 9.09990 150.937 15 -1 14 286
1997167N06162 1997 41 WP MM PETER 1997-06-18 12:00:00 NR 9.30000 150.200 main 1314 1309 O_____________ jtwc_wp WP091997 9.30000 150.200 15 -1 15 285
1997167N06162 1997 41 WP MM PETER 1997-06-18 15:00:00 NR 9.50725 149.437 main 1318 1316 P_____________ WP091997 9.50725 149.437 15 -1 16 284
1997167N06162 1997 41 WP MM PETER 1997-06-18 18:00:00 NR 9.70000 148.600 main 1328 1326 O_____________ jtwc_wp WP091997 9.70000 148.600 15 -1 18 282
1997167N06162 1997 41 WP MM PETER 1997-06-18 21:00:00 NR 9.86485 147.680 main 1345 1344 P_____________ WP091997 9.86485 147.680 15 -1 19 279
1997167N06162 1997 41 WP MM PETER 1997-06-19 00:00:00 NR 10.0000 146.700 main 1355 1355 O_____________ jtwc_wp WP091997 10.0000 146.700 15 -1 20 277
1997167N06162 1997 41 WP MM PETER 1997-06-19 03:00:00 NR 10.1075 145.685 main 1370 1370 P_____________ WP091997 10.1075 145.685 15 -1 20 276
1997167N06162 1997 41 WP MM PETER 1997-06-19 06:00:00 NR 10.2000 144.700 main 1394 1394 O_____________ jtwc_wp WP091997 10.2000 144.700 15 -1 19 276
1997167N06162 1997 41 WP MM PETER 1997-06-19 09:00:00 NR 10.2998 143.798 main 1423 1423 P_____________ WP091997 10.2998 143.798 15 -1 17 277
1997167N06162 1997 41 WP MM PETER 1997-06-19 12:00:00 NR 10.4000 143.000 main 1445 1429 O_____________ jtwc_wp WP091997 10.4000 143.000 15 -1 15 277
1997167N06162 1997 41 WP MM PETER 1997-06-19 15:00:00 NR 10.4849 142.282 main 1429 1416 P_____________ WP091997 10.4849 142.282 15 -1 13 279
1997167N06162 1997 41 WP MM PETER 1997-06-19 18:00:00 NR 10.6000 141.700 main 1420 1415 O_____________ jtwc_wp WP091997 10.6000 141.700 15 -1 11 285
1997167N06162 1997 41 WP MM PETER 1997-06-19 21:00:00 NR 10.7699 141.225 main 1426 1421 P_____________ WP091997 10.7699 141.225 15 -1 9 297
1997167N06162 1997 41 WP MM PETER 1997-06-20 00:00:00 NR 11.0000 140.900 main 1433 1433 O_____________ jtwc_wp WP091997 11.0000 140.900 15 -1 7 316
1997167N06162 1997 41 WP MM PETER 1997-06-20 03:00:00 NR 11.3074 140.705 main 1456 1456 P_____________ WP091997 11.3074 140.705 15 -1 7 334
1997167N06162 1997 41 WP MM PETER 1997-06-20 06:00:00 NR 11.6000 140.600 main 1483 1483 O_____________ jtwc_wp WP091997 11.6000 140.600 15 -1 5 338
1997167N06162 1997 41 WP MM PETER 1997-06-20 09:00:00 NR 11.7800 140.507 main 1500 1500 P_____________ WP091997 11.7800 140.507 15 -1 4 327
1997167N06162 1997 41 WP MM PETER 1997-06-20 12:00:00 NR 11.9000 140.400 main 1507 1503 O_____________ jtwc_wp WP091997 11.9000 140.400 15 -1 4 310
1997167N06162 1997 41 WP MM PETER 1997-06-20 15:00:00 NR 12.0150 140.223 main 1510 1510 P_____________ WP091997 12.0150 140.223 15 -1 4 297
1997167N06162 1997 41 WP MM PETER 1997-06-20 18:00:00 NR 12.1000 140.000 main 1514 1507 O_____________ jtwc_wp WP091997 12.1000 140.000 15 -1 5 288
1997167N06162 1997 41 WP MM PETER 1997-06-20 21:00:00 NR 12.1574 139.780 main 1517 1492 P_____________ WP091997 12.1574 139.780 20 -1 5 282
1997167N06162 1997 41 WP MM PETER 1997-06-21 00:00:00 NR 12.2000 139.500 main 1492 1460 O_____________ jtwc_wp WP091997 12.2000 139.500 25 -1 6 278
1997167N06162 1997 41 WP MM PETER 1997-06-21 03:00:00 NR 12.2425 139.137 main 1449 1409 P_____________ WP091997 12.2425 139.137 25 -1 8 277
1997167N06162 1997 41 WP MM PETER 1997-06-21 06:00:00 NR 12.3000 138.700 main 1409 1370 O_____________ jtwc_wp WP091997 12.3000 138.700 25 -1 9 279
1997167N06162 1997 41 WP MM PETER 1997-06-21 09:00:00 NR 12.3848 138.237 main 1359 1307 P_____________ WP091997 12.3848 138.237 22 -1 10 282
1997167N06162 1997 41 WP MM PETER 1997-06-21 12:00:00 NR 12.5000 137.700 main 1307 1243 O_____________ jtwc_wp WP091997 12.5000 137.700 20 -1 12 283
1997167N06162 1997 41 WP MM PETER 1997-06-21 15:00:00 NR 12.6499 137.080 main 1243 1171 P_____________ WP091997 12.6499 137.080 20 -1 13 283
1997167N06162 1997 41 WP MM PETER 1997-06-21 18:00:00 NR 12.8000 136.400 main 1171 1098 O_____________ jtwc_wp WP091997 12.8000 136.400 20 -1 14 281
1997167N06162 1997 41 WP MM PETER 1997-06-21 21:00:00 NR 12.9075 135.692 main 1098 1025 P_____________ WP091997 12.9075 135.692 20 -1 14 278
1997167N06162 1997 41 WP MM PETER 1997-06-22 00:00:00 NR 13.0000 135.000 main 1025 964 O_____________ jtwc_wp WP091997 13.0000 135.000 20 -1 13 279
1997167N06162 1997 41 WP MM PETER 1997-06-22 03:00:00 NR 13.1073 134.370 main 964 862 P_____________ WP091997 13.1073 134.370 22 -1 17 277
1997167N06162 1997 41 WP MM PETER 1997-06-22 06:00:00 TS 13.2000 133.300 1004 tokyo main 852 800 OOO___________ jtwc_wp WP091997 13.2000 133.800 25 -1 13.2000 132.300 2 1004 0 0 0 13.2000 132.300 1 23 1002 16 274
1997167N06162 1997 41 WP MM PETER 1997-06-22 09:00:00 TS 13.2262 132.779 main 800 767 PPP___________ WP091997 13.2574 133.277 27 -1 13.2000 132.245 2 1004 0 0 13.1900 132.318 1 23 1002 8 273
1997167N06162 1997 41 WP MM PETER 1997-06-22 12:00:00 TS 13.2400 132.470 1004 tokyo main 767 748 OOO___________ jtwc_wp WP091997 13.3000 132.800 30 -1 13.2000 132.200 2 1004 0 0 0 13.2000 132.300 1 23 1002 5 274
1997167N06162 1997 41 WP MM PETER 1997-06-22 15:00:00 TS 13.2641 132.241 main 737 716 PPP___________ WP091997 13.3499 132.335 30 -1 13.2000 132.165 2 1003 0 0 13.2425 132.223 1 23 1002 4 278
1997167N06162 1997 41 WP MM PETER 1997-06-22 18:00:00 TS 13.3000 132.033 1002 tokyo main 716 694 OOO___________ jtwc_wp WP091997 13.4000 131.900 30 -1 13.2000 132.100 2 1002 0 0 0 13.3000 132.100 1 23 1002 4 279
1997167N06162 1997 41 WP MM PETER 1997-06-22 21:00:00 TS 13.3283 131.812 main 694 675 PPP___________ WP091997 13.4499 131.485 30 -1 13.1850 131.980 2 1001 0 0 13.3500 131.973 1 23 1002 5 278
1997167N06162 1997 41 WP MM PETER 1997-06-23 00:00:00 TS 13.3667 131.567 1000 tokyo main 675 643 OOO___________ jtwc_wp WP091997 13.5000 131.100 30 -1 13.2000 131.800 2 1000 0 0 0 13.4000 131.800 1 23 1002 5 280
1997167N06162 1997 41 WP MM PETER 1997-06-23 03:00:00 TS 13.4233 131.286 main 643 614 PPP___________ WP091997 13.5424 130.742 30 -1 13.2850 131.558 2 1000 0 0 13.4425 131.557 1 26 1001 6 284
1997167N06162 1997 41 WP MM PETER 1997-06-23 06:00:00 TS 13.5000 131.000 1000 tokyo main 614 595 OOO___________ jtwc_wp WP091997 13.6000 130.400 30 -1 13.4000 131.300 2 1000 0 0 0 13.5000 131.300 1 29 1000 6 287
1997167N06162 1997 41 WP MM PETER 1997-06-23 09:00:00 TS 13.5875 130.745 main 585 567 PPP___________ WP091997 13.6925 130.050 32 -1 13.4850 131.092 2 999 0 0 13.5850 131.092 1 29 999 5 293
1997167N06162 1997 41 WP MM PETER 1997-06-23 12:00:00 TS 13.6923 130.523 998 tokyo main 567 550 OOOO__________ jtwc_wp WP091997 13.8000 129.700 35 0 13.6000 130.900 2 998 0 0 0 13.7000 130.900 1 29 998 13.6000 130.800 TD 30 998 5 298
1997167N06162 1997 41 WP MM PETER 1997-06-23 15:00:00 TS 13.8293 130.277 main 550 527 PPPP__________ WP091997 13.8999 129.357 35 0 13.7775 130.707 2 998 0 0 13.8275 130.707 1 29 998 13.7951 130.393 TD 30 998 6 301
1997167N06162 1997 41 WP MM PETER 1997-06-23 18:00:00 TS 14.0000 130.000 998 tokyo main 527 507 OOOO__________ jtwc_wp WP091997 14.0000 129.000 35 0 14.0000 130.500 2 998 0 0 0 14.0000 130.500 1 29 998 14.0000 130.000 TD 30 998 7 302
1997167N06162 1997 41 WP MM PETER 1997-06-23 21:00:00 TS 14.1787 129.699 main 507 488 PPPP__________ WP091997 14.0701 128.585 35 0 14.2124 130.287 2 998 0 0 14.2049 130.287 1 29 998 14.2274 129.635 TD 32 997 7 305
1997167N06162 1997 41 WP MM PETER 1997-06-24 00:00:00 TS 14.4250 129.375 998 tokyo main 488 477 OOOO__________ jtwc_wp WP091997 14.2000 128.200 35 0 14.5000 130.000 2 998 0 0 0 14.5000 130.000 1 29 998 14.5000 129.300 TS 35 996 9 313
1997167N06162 1997 41 WP MM PETER 1997-06-24 03:00:00 TS 14.7881 129.018 main 477 474 PPPP__________ WP091997 14.4474 127.920 35 0 14.9351 129.580 2 997 0 0 14.9351 129.580 1 29 998 14.8349 128.992 TS 35 996 10 318
1997167N06162 1997 41 WP MM PETER 1997-06-24 06:00:00 TS 15.2000 128.650 35 996 tokyo main 482 456 OOOO__________ jtwc_wp WP091997 14.8000 127.700 35 0 15.4000 129.100 3 35 996 0 2 300 150 0 15.4000 129.100 1 29 998 15.2000 128.700 TS 35 996 11 318
1997167N06162 1997 41 WP MM PETER 1997-06-24 09:00:00 TS 15.5750 128.285 main 460 441 PPPP__________ WP091997 15.2200 127.485 35 0 15.7799 128.642 3 35 996 0 2 300 150 15.7575 128.627 1 29 998 15.5425 128.385 TS 35 996 10 318
1997167N06162 1997 41 WP MM PETER 1997-06-24 12:00:00 TS 15.9500 127.950 35 996 tokyo main 452 438 OOOO__________ jtwc_wp WP091997 15.7000 127.300 35 0 16.1000 128.200 3 35 996 0 2 300 150 0 16.1000 128.200 1 29 998 15.9000 128.100 TS 35 996 10 322
1997167N06162 1997 41 WP MM PETER 1997-06-24 15:00:00 TS 16.3374 127.659 main 444 442 PPPP__________ WP091997 16.2000 127.120 35 0 16.3574 127.785 3 35 996 0 2 300 150 16.4999 127.855 1 29 998 16.2925 127.877 TS 37 995 9 327
1997167N06162 1997 41 WP MM PETER 1997-06-24 18:00:00 TS 16.7250 127.425 35 996 tokyo main 449 449 OOOO__________ jtwc_wp WP091997 16.7000 127.000 35 0 16.6000 127.400 3 35 996 0 2 300 150 0 16.9000 127.600 1 29 998 16.7000 127.700 TS 40 994 9 332
1997167N06162 1997 41 WP MM PETER 1997-06-24 21:00:00 TS 17.1000 127.234 main 465 465 PPPP__________ WP091997 17.1650 126.977 35 0 16.8775 127.005 3 37 995 0 2 337 160 17.2574 127.420 1 31 998 17.1000 127.535 TS 40 994 8 337
1997167N06162 1997 41 WP MM PETER 1997-06-25 00:00:00 TS 17.4750 127.100 40 994 tokyo main 491 484 OOOO__________ jtwc_wp WP091997 17.6000 127.000 35 0 17.2000 126.700 3 40 994 0 2 375 170 0 17.6000 127.300 2 34 998 17.5000 127.400 TS 40 994 8 344
1997167N06162 1997 41 WP MM PETER 1997-06-25 03:00:00 TS 17.8662 127.006 main 487 487 PPPP__________ WP091997 18.0150 127.007 40 0 17.5849 126.540 3 42 993 0 2 375 170 17.9650 127.185 2 36 996 17.9000 127.292 TS 40 994 8 349
1997167N06162 1997 41 WP MM PETER 1997-06-25 06:00:00 TS 18.2500 126.950 45 992 tokyo main 496 485 OOOO__________ jtwc_wp WP091997 18.4000 127.000 45 0 18.0000 126.500 3 45 992 0 2 375 170 0 18.3000 127.100 2 38 995 18.3000 127.200 TS 40 994 7 353
1997167N06162 1997 41 WP MM PETER 1997-06-25 09:00:00 TS 18.5925 126.911 main 485 485 PPPP__________ WP091997 18.7425 126.958 45 0 18.3925 126.527 3 45 991 0 2 375 170 18.5350 127.057 2 41 992 18.7000 127.100 TS 42 992 7 354
1997167N06162 1997 41 WP MM PETER 1997-06-25 12:00:00 TS 18.9500 126.875 45 990 tokyo main 489 480 OOOO__________ jtwc_wp WP091997 19.1000 126.900 45 0 18.8000 126.600 3 45 990 0 2 375 170 0 18.8000 127.000 2 44 990 19.1000 127.000 TS 45 990 8 354
1997167N06162 1997 41 WP MM PETER 1997-06-25 15:00:00 TS 19.3650 126.818 main 486 486 PPPP__________ WP091997 19.5350 126.850 47 0 19.2275 126.657 3 45 990 0 2 375 170 19.2125 126.865 2 46 987 19.4850 126.900 TS 47 987 9 352
1997167N06162 1997 41 WP MM PETER 1997-06-25 18:00:00 TS 19.8250 126.750 45 990 tokyo main 498 491 OOOO__________ jtwc_wp WP091997 20.0000 126.800 50 0 19.7000 126.700 3 45 990 0 2 375 170 0 19.7000 126.700 3 48 985 19.9000 126.800 STS 50 985 9 352
1997167N06162 1997 41 WP MM PETER 1997-06-25 21:00:00 TS 20.2931 126.673 main 508 508 PPPP__________ WP091997 20.4275 126.750 52 0 20.2125 126.708 3 47 987 0 2 375 175 20.1625 126.542 3 48 985 20.3700 126.693 STS 52 982 10 352
1997167N06162 1997 41 WP MM PETER 1997-06-26 00:00:00 TS 20.8250 126.600 50 985 tokyo main 524 524 OOOO__________ jtwc_wp WP091997 20.9000 126.700 55 0 20.8000 126.700 4 50 985 0 2 375 180 0 20.7000 126.400 3 48 985 20.9000 126.600 STS 55 980 12 354
1997167N06162 1997 41 WP MM PETER 1997-06-26 03:00:00 TS 21.4450 126.541 main 552 535 PPPP__________ WP091997 21.4625 126.650 60 0 21.4775 126.715 4 52 982 0 2 375 180 21.3700 126.255 3 51 985 21.4700 126.542 STS 57 977 13 356
1997167N06162 1997 41 WP MM PETER 1997-06-26 06:00:00 TS 22.1250 126.500 55 980 tokyo main 535 505 OOOO__________ jtwc_wp WP091997 22.1000 126.600 65 1 22.2000 126.700 4 55 980 2 90 50 2 375 180 0 22.1000 126.200 3 54 985 22.1000 126.500 STS 60 975 14 359
1997167N06162 1997 41 WP MM PETER 1997-06-26 09:00:00 TS 22.8175 126.494 main 505 480 PPPP__________ WP091997 22.7850 126.557 65 1 22.9000 126.634 4 55 980 2 90 50 2 375 180 22.8001 126.342 3 54 985 22.7850 126.443 STS 62 972 14 0
1997167N06162 1997 41 WP MM PETER 1997-06-26 12:00:00 TS 23.5250 126.475 55 980 tokyo main 480 453 OOOO__________ jtwc_wp WP091997 23.5000 126.500 65 1 23.6000 126.500 4 55 980 2 90 50 2 375 180 0 23.5000 126.500 3 54 985 23.5000 126.400 T 65 970 14 356
1997167N06162 1997 41 WP MM PETER 1997-06-26 15:00:00 TS 24.2175 126.391 60 975 tokyo main 453 443 POPP__________ WP091997 24.1850 126.393 65 1 24.3000 126.300 4 60 975 2 110 60 2 400 200 0 24.1925 126.480 3 56 982 24.1925 126.392 T 65 970 14 355
1997167N06162 1997 41 WP MM PETER 1997-06-26 18:00:00 TS 24.9250 126.350 60 975 tokyo main 443 432 OOOO__________ jtwc_wp WP091997 24.9000 126.300 65 1 25.0000 126.300 4 60 975 2 110 60 2 400 200 0 24.9000 126.400 3 58 980 24.9000 126.400 T 65 970 14 357
1997167N06162 1997 41 WP MM PETER 1997-06-26 21:00:00 TS 25.6394 126.319 60 975 tokyo main 437 437 POPP__________ WP091997 25.6700 126.277 65 1 25.7000 126.300 4 60 975 2 110 60 2 400 200 0 25.5825 126.313 3 58 980 25.6050 126.385 T 65 970 15 0
1997167N06162 1997 41 WP MM PETER 1997-06-27 00:00:00 TS 26.4250 126.325 60 975 tokyo main 457 457 OOOO__________ jtwc_wp WP091997 26.5000 126.300 65 1 26.4000 126.300 4 60 975 2 110 60 2 400 200 0 26.4000 126.300 3 58 980 26.4000 126.400 T 65 970 18 3
1997167N06162 1997 41 WP MM PETER 1997-06-27 03:00:00 TS 27.3875 126.407 60 975 tokyo main 474 446 POPP__________ WP091997 27.3924 126.306 65 1 27.2000 126.400 4 60 975 2 110 60 2 400 200 0 27.5651 126.461 3 61 975 27.3925 126.463 T 65 970 20 6
1997167N06162 1997 41 WP MM PETER 1997-06-27 06:00:00 TS 28.4500 126.550 65 970 tokyo main 454 388 OOOO__________ jtwc_wp WP091997 28.3000 126.400 65 1 28.4000 126.500 5 65 970 3 150 70 3 400 200 0 28.7000 126.700 4 64 970 28.4000 126.600 T 65 970 20 9
1997167N06162 1997 41 WP MM PETER 1997-06-27 09:00:00 TS 29.3029 126.770 65 970 tokyo main 388 325 POPP__________ WP091997 29.1648 126.633 65 1 29.4000 126.800 5 65 970 3 150 70 3 400 200 0 29.4021 126.864 4 61 972 29.2446 126.783 T 65 970 16 16
1997167N06162 1997 41 WP MM PETER 1997-06-27 12:00:00 TS 30.0000 127.075 65 970 tokyo main 325 260 OOOO__________ jtwc_wp WP091997 30.0000 127.000 65 1 30.0000 127.100 5 65 970 3 150 70 3 400 200 0 30.0000 127.100 3 58 975 30.0000 127.100 T 65 970 17 24
1997167N06162 1997 41 WP MM PETER 1997-06-27 15:00:00 TS 30.8203 127.567 65 970 tokyo main 251 194 POPP__________ WP091997 30.8368 127.418 62 0 30.9000 127.800 5 65 970 3 150 70 3 400 200 0 30.8070 127.460 3 58 975 30.7375 127.590 T 62 972 18 30
1997167N06162 1997 41 WP MM PETER 1997-06-27 18:00:00 TS 31.5750 128.150 65 970 tokyo main 179 109 OOOO__________ jtwc_wp WP091997 31.6000 128.000 60 0 31.7000 128.400 5 65 970 3 150 70 3 400 200 0 31.6000 128.000 3 58 975 31.4000 128.200 STS 60 975 17 37
1997167N06162 1997 41 WP MM PETER 1997-06-27 21:00:00 TS 32.1507 128.740 60 975 tokyo main 103 14 POPP__________ WP091997 32.2358 128.717 57 0 32.2000 128.900 4 60 975 3 150 70 3 400 200 0 32.2282 128.660 3 58 975 31.9387 128.683 STS 60 975 17 47
1997167N06162 1997 41 WP MM PETER 1997-06-28 00:00:00 TS 32.7250 129.625 60 975 tokyo main 14 0 OOOO__________ jtwc_wp WP091997 32.8000 129.700 55 0 32.8000 129.700 4 60 975 3 150 70 3 400 200 1 32.8000 129.600 3 58 975 32.5000 129.500 STS 60 975 21 59
1997167N06162 1997 41 WP MM PETER 1997-06-28 03:00:00 TS 33.2501 130.875 60 975 tokyo main 0 0 POPP__________ WP091997 33.3103 130.940 52 0 33.1000 130.700 4 60 975 3 150 70 3 400 200 0 33.3605 130.832 3 53 977 33.2297 131.026 STS 57 977 27 63
1997167N06162 1997 41 WP MM PETER 1997-06-28 06:00:00 TS 33.9500 132.550 55 980 tokyo main 11 0 OOOO__________ jtwc_wp WP091997 33.9000 132.500 50 0 33.9000 132.400 4 55 980 3 110 60 3 350 160 0 34.0000 132.400 3 48 980 34.0000 132.900 STS 55 980 32 63
1997167N06162 1997 41 WP MM PETER 1997-06-28 07:00:00 TS 34.2347 133.185 55 980 tokyo main 14 0 POPP__________ WP091997 34.1416 133.087 49 0 34.3000 133.200 4 55 980 3 110 60 3 350 160 1 34.2650 132.976 3 48 980 34.2320 133.478 STS 54 980 35 62
1997167N06162 1997 41 WP MM PETER 1997-06-28 09:00:00 TS 34.7534 134.414 55 980 tokyo main 0 0 POPP__________ WP091997 34.6832 134.369 47 0 34.8000 134.400 4 55 980 3 110 60 3 350 160 0 34.8416 134.236 3 48 980 34.6889 134.653 STS 52 980 35 62
1997167N06162 1997 41 WP MM PETER 1997-06-28 12:00:00 TS 35.6133 136.367 50 980 tokyo main 0 0 OOOO__________ jtwc_wp WP091997 35.6000 136.400 45 0 35.7000 136.300 4 50 980 0 3 300 150 0 35.7000 136.300 3 48 980 35.4000 136.500 STS 50 980 37 63
1997167N06162 1997 41 WP MM PETER 1997-06-28 15:00:00 TS 36.3936 138.453 50 980 tokyo main 0 0 POPP__________ WP091997 36.5527 138.369 42 0 36.5000 138.700 4 50 980 0 3 300 150 0 36.2322 138.268 3 48 980 36.1856 138.494 STS 50 980 37 65
1997167N06162 1997 41 WP MM PETER 1997-06-28 18:00:00 TS 37.2000 140.500 50 980 tokyo main 0 0 OOOO__________ jtwc_wp WP091997 37.6000 140.300 40 0 37.0000 140.600 4 50 980 0 3 300 150 0 37.0000 140.600 3 48 980 37.0000 140.600 STS 50 980 42 62
1997167N06162 1997 41 WP MM PETER 1997-06-28 21:00:00 MX 38.3577 143.105 980 tokyo main 130 130 POP___________ WP091997 38.6994 142.129 42 0 38.0000 143.800 6 980 0 0 0 38.3899 143.666 3 48 982 STS 50 56
1997167N06162 1997 41 WP MM PETER 1997-06-29 00:00:00 ET 40.0111 145.833 984 tokyo main 303 283 OOO___________ jtwc_wp WP091997 39.9000 144.000 45 0 40.1000 147.300 6 984 0 0 0 40.1000 147.300 9 48 984 47 51
1997167N06162 1997 41 WP MM PETER 1997-06-29 03:00:00 ET 41.3412 147.912 main 288 284 PP____________ WP091997 41.2464 146.159 47 0 41.4359 149.665 6 982 0 0 9 38 50
1997167N06162 1997 41 WP MM PETER 1997-06-29 06:00:00 ET 42.5000 149.750 980 tokyo main 310 254 OO____________ jtwc_wp WP091997 42.5000 148.300 50 0 42.5000 151.200 6 980 0 0 0 36 48
1997167N06162 1997 41 WP MM PETER 1997-06-29 09:00:00 ET 43.7721 151.582 main 249 237 PP____________ WP091997 43.4895 150.197 52 0 44.0548 152.967 6 978 0 0 33 45
1997167N06162 1997 41 WP MM PETER 1997-06-29 12:00:00 ET 44.8000 152.950 976 tokyo main 248 248 OO____________ jtwc_wp WP091997 44.2000 151.800 55 0 45.4000 154.100 6 976 0 0 0 22 42
1997167N06162 1997 41 WP MM PETER 1997-06-29 15:00:00 ET 45.3759 153.616 main 259 259 PP____________ WP091997 44.6519 153.141 57 0 46.0999 154.090 6 973 0 0 11 38
1997167N06162 1997 41 WP MM PETER 1997-06-29 18:00:00 ET 45.6500 153.900 970 tokyo main 273 273 OO____________ jtwc_wp WP091997 44.9000 154.200 60 0 46.4000 153.600 6 970 0 0 0 7 45
1997167N06162 1997 41 WP MM PETER 1997-06-29 21:00:00 ET 45.8492 154.300 main 302 300 PP____________ WP091997 45.0861 155.134 65 1 46.6123 153.466 6 969 0 0 6 66
1997167N06162 1997 41 WP MM PETER 1997-06-30 00:00:00 ET 45.9000 154.700 968 tokyo main 331 331 OO____________ jtwc_wp WP091997 45.2000 155.900 70 1 46.6000 153.500 6 968 0 0 0 6 91
1997167N06162 1997 41 WP MM PETER 1997-06-30 03:00:00 ET 45.8422 155.097 main 363 363 PP____________ WP091997 45.3066 156.581 70 1 46.3779 153.612 6 968 0 0 7 103
1997167N06162 1997 41 WP MM PETER 1997-06-30 06:00:00 ET 45.7500 155.650 968 tokyo main 409 410 OO____________ jtwc_wp WP091997 45.4000 157.200 70 1 46.1000 154.100 6 968 0 0 0 10 97
1997167N06162 1997 41 WP MM PETER 1997-06-30 09:00:00 ET 45.7134 156.517 main 472 472 PP____________ WP091997 45.4998 157.858 70 1 45.9271 155.176 6 969 0 0 13 90
1997167N06162 1997 41 WP MM PETER 1997-06-30 12:00:00 ET 45.7500 157.500 970 tokyo main 491 491 OO____________ jtwc_wp WP091997 45.6000 158.500 70 1 45.9000 156.500 6 970 0 0 0 13 82
1997167N06162 1997 41 WP MM PETER 1997-06-30 15:00:00 ET 45.9024 158.411 main 506 506 PP____________ WP091997 45.6997 159.115 67 1 46.1051 157.707 6 972 0 0 13 74
1997167N06162 1997 41 WP MM PETER 1997-06-30 18:00:00 ET 46.1000 159.250 974 tokyo main 519 517 OO____________ jtwc_wp WP091997 45.8000 159.700 65 1 46.4000 158.800 6 974 0 0 0 11 72
1997167N06162 1997 41 WP MM PETER 1997-06-30 21:00:00 ET 46.2492 159.975 main 537 527 PP____________ WP091997 45.8998 160.273 62 0 46.5986 159.677 6 977 0 0 10 72
1997167N06162 1997 41 WP MM PETER 1997-07-01 00:00:00 ET 46.4000 160.600 980 tokyo main 545 545 OO____________ jtwc_wp WP091997 46.0000 160.800 60 0 46.8000 160.400 6 980 0 0 0 9 68
1997167N06162 1997 41 WP MM PETER 1997-07-01 03:00:00 ET 46.5784 161.184 main 557 557 PP____________ WP091997 46.0921 161.265 57 0 47.0647 161.102 6 982 0 0 8 65
1997167N06162 1997 41 WP MM PETER 1997-07-01 06:00:00 ET 46.7500 161.700 984 tokyo main 568 568 OO____________ jtwc_wp WP091997 46.2000 161.700 55 0 47.3000 161.700 6 984 0 0 0 7 66
1997167N06162 1997 41 WP MM PETER 1997-07-01 09:00:00 ET 46.8860 162.177 main 588 588 PP____________ WP091997 46.3422 162.143 52 0 47.4297 162.211 6 986 0 0 7 68
1997167N06162 1997 41 WP MM PETER 1997-07-01 12:00:00 ET 47.0000 162.600 988 tokyo main 605 604 OO____________ jtwc_wp WP091997 46.5000 162.600 50 0 47.5000 162.600 6 988 0 0 0 6 65
1997167N06162 1997 41 WP MM PETER 1997-07-01 15:00:00 ET 47.1370 162.956 main 619 610 PP____________ WP091997 46.6500 163.100 47 0 47.6240 162.811 6 990 0 0 5 69
1997167N06162 1997 41 WP MM PETER 1997-07-01 18:00:00 ET 47.2000 163.350 992 tokyo main 628 628 OO____________ jtwc_wp WP091997 46.8000 163.600 45 0 47.6000 163.100 6 992 0 0 0 6 92
1997167N06162 1997 41 WP MM PETER 1997-07-01 21:00:00 ET 47.1122 163.877 main 660 660 PP____________ WP091997 46.9571 164.050 42 0 47.2674 163.704 6 993 0 0 8 108
1997167N06162 1997 41 WP MM PETER 1997-07-02 00:00:00 ET 46.9500 164.500 994 tokyo main 697 706 OO____________ jtwc_wp WP091997 47.1000 164.500 40 0 46.8000 164.500 6 994 0 0 0 9 112
1997167N06162 1997 41 WP MM PETER 1997-07-02 03:00:00 ET 46.7656 165.157 main 749 749 PP____________ WP091997 47.1997 164.978 40 0 46.3315 165.335 6 995 0 0 10 107
1997167N06162 1997 41 WP MM PETER 1997-07-02 06:00:00 ET 46.6500 165.900 996 tokyo main 793 793 OO____________ jtwc_wp WP091997 47.3000 165.500 40 0 46.0000 166.300 6 996 0 0 0 11 94
1997167N06162 1997 41 WP MM PETER 1997-07-02 09:00:00 ET 46.6910 166.789 main 842 842 PP____________ WP091997 47.4424 166.085 37 0 45.9395 167.493 6 997 0 0 12 81
1997167N06162 1997 41 WP MM PETER 1997-07-02 12:00:00 ET 46.8500 167.650 998 tokyo main 873 873 OO____________ jtwc_wp WP091997 47.6000 166.700 35 0 46.1000 168.600 6 998 0 0 0 11 69
1997167N06162 1997 41 WP MM PETER 1997-07-02 15:00:00 ET 47.0751 168.229 main 878 878 PP____________ WP091997 47.7410 167.241 35 0 46.4092 169.216 6 998 0 0 10 59
1997167N06162 1997 41 WP MM PETER 1997-07-02 18:00:00 ET 47.3500 168.850 998 tokyo main 886 886 OO____________ jtwc_wp WP091997 47.9000 167.900 35 0 46.8000 169.800 6 998 0 0 0 12 62
1997167N06162 1997 41 WP MM PETER 1997-07-02 21:00:00 ET 47.6138 169.755 main 915 913 PP____________ WP091997 48.0989 168.787 32 -1 47.1287 170.722 6 998 0 0 15 70
1997167N06162 1997 41 WP MM PETER 1997-07-03 00:00:00 ET 47.8500 170.900 998 tokyo main 952 958 OO____________ jtwc_wp WP091997 48.3000 169.900 30 -1 47.4000 171.900 6 998 0 0 0 17 77
1997167N06162 1997 41 WP MM PETER 1997-07-03 03:00:00 ET 47.9992 172.221 main 1017 1017 PP____________ WP091997 48.4556 171.147 30 -1 47.5428 173.294 6 998 0 0 19 81
1997167N06162 1997 41 WP MM PETER 1997-07-03 06:00:00 ET 48.1500 173.700 998 tokyo main 1074 1074 OO____________ jtwc_wp WP091997 48.6000 172.600 30 -1 47.7000 174.800 6 998 0 0 0 21 80
1997167N06162 1997 41 WP MM PETER 1997-07-03 09:00:00 ET 48.3773 175.282 main 1142 1106 PP____________ WP091997 48.7483 174.219 30 -1 48.0063 176.346 6 998 0 0 21 77
1997167N06162 1997 41 WP MM PETER 1997-07-03 12:00:00 ET 48.6500 176.850 998 tokyo main 1094 1007 OO____________ jtwc_wp WP091997 48.9000 176.000 30 -1 48.4000 177.700 6 998 0 0 0 20 73
1997167N06162 1997 41 WP MM PETER 1997-07-03 15:00:00 ET 48.9543 178.220 main 995 903 PP____________ WP091997 49.0618 177.840 30 -1 48.8468 178.600 6 999 0 0 19 71
1997167N06162 1997 41 WP MM PETER 1997-07-03 18:00:00 ET 49.2500 179.550 1000 tokyo main 891 800 OO____________ jtwc_wp WP091997 49.2000 179.800 30 -1 49.3000 179.300 6 1000 0 0 0 19 74
1997167N06162 1997 41 EP CP PETER 1997-07-03 21:00:00 ET 49.4778 180.968 main 794 704 PP____________ WP091997 49.2782 -178.130 30 -1 49.6774 -179.935 6 1000 0 0 19 78
1997167N06162 1997 41 EP CP PETER 1997-07-04 00:00:00 ET 49.6500 182.450 main 698 OO____________ jtwc_wp WP091997 49.3000 -176.000 30 -1 50.0000 180.900 6 1000 0 0 0 19 80

デジタル台風データ・検索

IBTrACS Databaseについて

本データベースは、米国NOAAが公開する1842年以降の世界の熱帯低気圧のベストトラックデータアーカイブInternational Best Track Archive for Climate Stewardship (IBTrACS)を、ウェブで閲覧しやすい形式に変換したものです。

最終更新日:2021-12-03